Regione ABRUZZO
Località Giorno Ora Temp. Umid. Relat. Dew Point Press. Atm. Velocità Vento Direz. Vento Precip. Temp.
Min
Temp.
Max
San Salvo3 (CH) 23/02/18 03.10 6.1 °C 92 % 4.9 °C 1000.6 hPa 0.0 Km/h N 0.0 mm  5.9 °C 6.2 °C
Vasto (CH) 22/02/18 19.08 7.8 °C 10 % -21.9 °C 1004.1 hPa 0.8 Km/h N 0.3 mm  3.3 °C 9.1 °C
 
 
Regione BASILICATA
Località Giorno Ora Temp. Umid. Relat. Dew Point Press. Atm. Velocità Vento Direz. Vento Precip. Temp.
Min
Temp.
Max
Miglionico (MT) 23/02/18 03.00 7.7 °C 94 % 6.8 °C 1001.3 hPa 8.0 Km/h S 0.0 mm  7.7 °C 8.7 °C
 
 
Regione CALABRIA
Località Giorno Ora Temp. Umid. Relat. Dew Point Press. Atm. Velocità Vento Direz. Vento Precip. Temp.
Min
Temp.
Max
Bisignano (CS) 23/02/18 03.13 8.3 °C 84 % 5.8 °C 1002.8 hPa 3.3 Km/h N 0.0 mm  8.3 °C 9.6 °C
Savelli (KR) 23/02/18 00.41 5.3 °C 96 % 4.7 °C 1006.2 hPa 3.3 Km/h SSW 0.0 mm  4.9 °C 5.3 °C
 
 
Regione CAMPANIA
Località Giorno Ora Temp. Umid. Relat. Dew Point Press. Atm. Velocità Vento Direz. Vento Precip. Temp.
Min
Temp.
Max
Torre Annunziata (NA) 23/02/18 02.55 10.0 °C 90 % 8.4 °C 1001.8 hPa 0.0 Km/h S 0.4 mm  9.8 °C 10.1 °C
 
 
Regione EMILIA ROMAGNA
Località Giorno Ora Temp. Umid. Relat. Dew Point Press. Atm. Velocità Vento Direz. Vento Precip. Temp.
Min
Temp.
Max
Bellaria Igea Marina (RN) 23/02/18 03.13 6.5 °C 93 % 5.5 °C 1004.1 hPa 22.5 Km/h ENE 4.4 mm  6.0 °C 6.6 °C
Bellaria Igea Marina2 (RN) 23/02/18 03.13 6.6 °C 94 % 5.7 °C 1004.0 hPa 22.5 Km/h NE 6.0 mm  6.1 °C 6.7 °C
Bellaria Igea Marina3 (RN) 22/02/18 12.27 2.4 °C 80 % -0.7 °C 1004.7 hPa 27.7 Km/h WSW 18.7 mm  1.1 °C 5.5 °C
Carpi (MO) 23/02/18 03.13 1.7 °C 93 % 0.7 °C 1007.4 hPa 8.7 Km/h NNE 4.6 mm  1.7 °C 3.1 °C
Filo di Argenta (FE) 23/02/18 02.55 3.4 °C 94 % 2.6 °C 1007.5 hPa 8.0 Km/h N 7.0 mm  3.4 °C 4.1 °C
Masiera di Bagnacavallo (RA) 23/02/18 03.10 4.4 °C 94 % 3.5 °C 1006.9 hPa 6.7 Km/h NNW 6.6 mm  4.5 °C 5.3 °C
Migliarino (FE) 23/02/18 03.13 4.5 °C 86 % 2.4 °C 1005.9 hPa 6.1 Km/h N 3.0 mm  4.5 °C 5.2 °C
Ponte San Pellegrino (MO) 23/02/18 03.08 2.0 °C 82 % -0.7 °C 1010.7 hPa 20.9 Km/h N 3.3 mm  2.0 °C 3.6 °C
Riccione (RN) 23/02/18 02.25 7.1 °C 95 % 6.3 °C 1004.4 hPa 33.8 Km/h ENE 2.3 mm  6.4 °C 7.1 °C
Rimini (RN) 23/02/18 02.50 6.8 °C 90 % 5.3 °C 1004.7 hPa 25.7 Km/h ENE 5.6 mm  6.4 °C 7.0 °C
Rimini Zona Palas (RN) 23/02/18 03.04 6.5 °C 94 % 5.6 °C 1005.3 hPa 17.7 Km/h NE 5.1 mm  6.0 °C 6.6 °C
San Potito Lugo (RA) 22/02/18 22.40 5.2 °C 91 % 3.9 °C 1012.4 hPa 5.0 Km/h NW 15.0 mm  1.6 °C 5.5 °C
Santarcangelo di Romagna (RN) 23/02/18 03.11 8.9 °C 71 % 3.9 °C 1005.2 hPa 0.0 Km/h SSE 0.0 mm  8.9 °C 8.9 °C
Stiore - Monteveglio (BO) 23/02/18 03.10 0.1 °C 97 % -0.4 °C 1004.8 hPa 0.0 Km/h NW 0.3 mm  0.0 °C 0.2 °C
 
 
Regione FRIULI V.G.
Località Giorno Ora Temp. Umid. Relat. Dew Point Press. Atm. Velocità Vento Direz. Vento Precip. Temp.
Min
Temp.
Max
Budoia (PN) 23/02/18 03.01 5.6 °C 62 % -1.1 °C 1008.4 hPa 6.4 Km/h NE 0.0 mm  4.2 °C 6.7 °C
Campoformido (UD) 23/02/18 03.12 3.8 °C 70 % -1.2 °C 1009.8 hPa 24.1 Km/h ENE 0.0 mm  3.7 °C 4.4 °C
Fogliano Redipuglia (GO) 23/02/18 03.05 3.6 °C 62 % -3.0 °C 1009.0 hPa 60.8 Km/h E 0.0 mm  3.5 °C 5.4 °C
Fontanafredda (PN) 23/02/18 03.15 5.0 °C 72 % 0.4 °C 1008.2 hPa 5.6 Km/h E 0.0 mm  3.9 °C 5.0 °C
Gorizia (GO) 23/02/18 03.14 3.7 °C 61 % -3.2 °C 1008.8 hPa 0.0 Km/h E 0.0 mm  3.4 °C 4.1 °C
Gradisca d'Isonzo (GO) 23/02/18 03.14 4.3 °C 65 % -1.7 °C 1010.2 hPa 6.5 Km/h ENE 0.0 mm  4.3 °C 5.0 °C
Ovaro loc. Liariis (UD) 22/02/18 09.00 1.9 °C 78 % -1.5 °C 1011.0 hPa 1.6 Km/h NW 0.0 mm  1.9 °C 3.7 °C
Pordenone (PN) 23/02/18 02.50 6.1 °C 64 % -0.2 °C 1009.8 hPa 3.2 Km/h NNE 0.0 mm  4.8 °C 6.8 °C
Sacile (PN) 23/02/18 03.00 5.0 °C 72 % 0.4 °C 1008.0 hPa 8.0 Km/h NE 0.0 mm  4.0 °C 5.3 °C
Staranzano (GO) 23/02/18 03.00 2.3 °C 78 % -1.2 °C 1009.0 hPa 12.9 Km/h ENE 0.3 mm  2.3 °C 4.4 °C
 
 
Regione LAZIO
Località Giorno Ora Temp. Umid. Relat. Dew Point Press. Atm. Velocità Vento Direz. Vento Precip. Temp.
Min
Temp.
Max
Capodimonte (VT) 23/02/18 03.10 6.5 °C 91 % 5.1 °C 1002.7 hPa 0.0 Km/h N 0.0 mm  5.8 °C 6.6 °C
Caprarola Centro Storico (VT) 23/02/18 03.13 4.8 °C 100 % 4.8 °C 1001.0 hPa 0.0 Km/h SSE 0.3 mm  4.4 °C 4.8 °C
Civita Castellana (VT) 23/02/18 03.14 5.3 °C 92 % 4.1 °C 1002.2 hPa 1.7 Km/h NNE 0.0 mm  5.3 °C 5.4 °C
Marta (VT) 23/02/18 02.55 5.6 °C 88 % 3.7 °C 999.2 hPa 13.0 Km/h NE 0.0 mm  5.4 °C 6.1 °C
Pomezia (RM) 23/02/18 03.10 8.1 °C 90 % 6.5 °C 1000.3 hPa 6.4 Km/h ESE 0.0 mm  7.8 °C 8.6 °C
Ronciglione Centro (VT) 23/02/18 03.10 4.8 °C 98 % 4.5 °C 1001.0 hPa 0.0 Km/h ESE 0.2 mm  4.5 °C 4.8 °C
S. Lorenzo Nuovo (VT) 23/02/18 03.10 2.2 °C 78 % -1.3 °C 998.6 hPa 15.1 Km/h NE 0.0 mm  2.1 °C 2.4 °C
Tuscania (VT) 22/02/18 16.00 6.6 °C 89 % 4.9 °C 1002.2 hPa 0.9 Km/h ENE 3.0 mm  3.6 °C 8.2 °C
Valentano (VT) 23/02/18 03.10 3.7 °C 95 % 2.8 °C 1000.5 hPa 17.8 Km/h NE 0.0 mm  2.8 °C 3.7 °C
Viterbo Santa Barbara (VT) 22/02/18 22.09 4.0 °C 94 % 3.1 °C 1001.4 hPa 7.6 Km/h NE 9.8 mm  1.2 °C 6.1 °C
Viterbo Strada Bagni (VT) 23/02/18 03.11 4.4 °C 93 % 3.3 °C 1000.9 hPa 0.0 Km/h NNE 0.0 mm  4.3 °C 4.8 °C
Vitorchiano Pallone (VT) 22/02/18 16.30 5.1 °C 94 % 4.2 °C 1000.9 hPa 4.8 Km/h E 3.3 mm  1.4 °C 5.7 °C
 
 
Regione LIGURIA
Località Giorno Ora Temp. Umid. Relat. Dew Point Press. Atm. Velocità Vento Direz. Vento Precip. Temp.
Min
Temp.
Max
Arenzano (GE) 23/02/18 03.13 4.7 °C 70 % -0.3 °C 1003.8 hPa 59.5 Km/h N 0.2 mm  4.4 °C 6.6 °C
Cosseria Lidora (SV) 23/02/18 02.45 0.8 °C 93 % -0.2 °C 1007.4 hPa 8.0 Km/h WNW 1.0 mm  0.7 °C 1.9 °C
Genova Albaro (GE) 23/02/18 03.13 6.7 °C 41 % -5.6 °C 1001.0 hPa 7.5 Km/h NE 0.0 mm  6.4 °C 7.3 °C
Genova Erzelli (GE) 23/02/18 02.53 7.2 °C 57 % -0.7 °C 1003.3 hPa 16.1 Km/h N 0.0 mm  7.0 °C 7.6 °C
Loano (SV) 23/02/18 02.55 5.6 °C 76 % 1.7 °C 1004.4 hPa 47.0 Km/h N 0.2 mm  5.6 °C 7.8 °C
Moneglia loc. Casale (GE) 23/02/18 03.10 4.7 °C 65 % -1.3 °C 1003.8 hPa 16.1 Km/h ENE 0.0 mm  4.2 °C 4.7 °C
Moneglia loc. La Secca (GE) 23/02/18 03.10 7.7 °C 56 % -0.5 °C 1001.6 hPa 12.9 Km/h WSW 0.0 mm  7.3 °C 7.8 °C
Ortonovo (SP) 23/02/18 03.10 6.2 °C 51 % -3.2 °C 997.0 hPa 21.5 Km/h E 0.0 mm  5.4 °C 6.2 °C
Varese Ligure (SP) 23/02/18 03.10 2.7 °C 15 % -21.3 °C 998.0 hPa 18.0 Km/h NE 0.3 mm  1.8 °C 2.7 °C
 
 
Regione LOMBARDIA
Località Giorno Ora Temp. Umid. Relat. Dew Point Press. Atm. Velocità Vento Direz. Vento Precip. Temp.
Min
Temp.
Max
Bernate Ticino fraz. Casate (MI) 23/02/18 03.13 2.5 °C 89 % 0.8 °C 1005.4 hPa 0.0 Km/h S 0.5 mm  2.4 °C 2.5 °C
Besozzo (VA) 22/02/18 21.48 2.9 °C 86 % 0.8 °C 1009.5 hPa 0.0 Km/h --- 0.0 mm  -1.7 °C 6.7 °C
Brebbia (VA) 22/02/18 21.20 3.6 °C 86 % 1.5 °C 1010.0 hPa 0.0 Km/h E 0.0 mm  -0.4 °C 7.6 °C
Calcinato (BS) 23/02/18 03.13 3.2 °C 90 % 1.7 °C 1010.8 hPa 6.4 Km/h NW 0.5 mm  3.1 °C 3.6 °C
Cassano Magnago (VA) 23/02/18 03.03 2.7 °C 90 % 1.2 °C 1008.0 hPa 1.6 Km/h W 0.0 mm  2.5 °C 2.9 °C
Cavaria con Premezzo (VA) 23/02/18 03.13 2.8 °C 91 % 1.7 °C 1007.5 hPa 0.0 Km/h SW 0.0 mm  2.7 °C 2.9 °C
Dorno (PV) 23/02/18 03.14 2.9 °C 96 % 2.3 °C 1009.1 hPa 0.0 Km/h ESE 0.8 mm  2.8 °C 3.8 °C
Esine (BS) 23/02/18 03.13 3.1 °C 88 % 1.3 °C 1006.9 hPa 0.0 Km/h SSW 0.0 mm  2.8 °C 3.3 °C
Gaggiano (MI) 23/02/18 03.14 2.5 °C 94 % 1.6 °C 1008.0 hPa 7.4 Km/h SE 0.4 mm  2.5 °C 3.8 °C
Laxolo (BG) 23/02/18 02.58 1.5 °C 99 % 1.4 °C 1001.4 hPa 0.0 Km/h WSW 0.7 mm  0.2 °C 3.8 °C
Lesmo (MB) 23/02/18 02.50 2.3 °C 92 % 1.1 °C 1008.8 hPa 0.0 Km/h --- 0.0 mm  2.2 °C 2.8 °C
Lovere (BG) 23/02/18 03.04 3.9 °C 64 % -2.3 °C 1008.0 hPa 0.0 Km/h SW 0.0 mm  3.9 °C 4.1 °C
Malnate San Salvatore (VA) 23/02/18 03.00 2.2 °C 92 % 1.0 °C 1008.9 hPa 0.0 Km/h --- 0.0 mm  2.2 °C 2.4 °C
Mezzana Bigli (PV) 23/02/18 03.10 2.6 °C 93 % 1.5 °C 1007.7 hPa 0.2 Km/h N 1.0 mm  2.6 °C 3.2 °C
Montagna in Valtellina (SO) 23/02/18 03.10 1.7 °C 82 % -1.0 °C 1008.5 hPa 0.0 Km/h W 0.0 mm  1.7 °C 3.6 °C
Morbegno (SO) 23/02/18 03.10 2.9 °C 82 % 0.1 °C 1009.1 hPa 0.0 Km/h ENE 0.0 mm  2.0 °C 3.3 °C
Rivalta sul Mincio (MN) 23/02/18 02.56 4.2 °C 80 % 1.1 °C 1008.9 hPa 3.9 Km/h E 0.0 mm  4.2 °C 4.6 °C
 
 
Regione MARCHE
Località Giorno Ora Temp. Umid. Relat. Dew Point Press. Atm. Velocità Vento Direz. Vento Precip. Temp.
Min
Temp.
Max
Ancona (AN) 23/02/18 02.20 6.3 °C 96 % 5.7 °C 1003.7 hPa 0.0 Km/h ESE 4.6 mm  6.2 °C 8.7 °C
Barbara (AN) 23/02/18 03.13 3.8 °C 87 % 1.8 °C 1005.9 hPa 18.7 Km/h WNW 3.1 mm  3.2 °C 3.8 °C
Ca' Gallo (PU) 23/02/18 03.03 4.2 °C 94 % 3.3 °C 999.5 hPa 0.3 Km/h NNW 5.8 mm  3.4 °C 4.2 °C
Marina di Montemarciano (AN) 23/02/18 02.55 6.0 °C 92 % 4.8 °C 1003.0 hPa 3.2 Km/h S 13.2 mm  5.9 °C 7.7 °C
Montelabbate (PU) 23/02/18 03.03 5.4 °C 93 % 4.3 °C 998.9 hPa 1.3 Km/h S 12.2 mm  4.4 °C 5.5 °C
San Benedetto del Tronto (AP) 22/02/18 19.30 6.7 °C 89 % 5.0 °C 1004.0 hPa 0.0 Km/h WSW 25.5 mm  4.4 °C 8.3 °C
 
 
Regione MOSELLE
Località Giorno Ora Temp. Umid. Relat. Dew Point Press. Atm. Velocità Vento Direz. Vento Precip. Temp.
Min
Temp.
Max
Seremange Erzange (Moselle) 23/02/18 03.10 -2.2 °C 68 % -7.3 °C 1018.6 hPa 4.7 Km/h ENE 0.0 mm  -2.1 °C -1.2 °C
 
 
Regione PIEMONTE
Località Giorno Ora Temp. Umid. Relat. Dew Point Press. Atm. Velocità Vento Direz. Vento Precip. Temp.
Min
Temp.
Max
Borgofranco d'Ivrea (TO) 17/02/18 10.54 4.3 °C 85 % 2.0 °C 1026.0 hPa 0.0 Km/h NW 0.0 mm  0.7 °C 4.4 °C
Castelferro (AL) 23/02/18 03.13 2.3 °C 95 % 1.6 °C 1008.2 hPa 12.9 Km/h N 0.4 mm  2.3 °C 3.0 °C
Monasterolo Torinese (TO) 23/02/18 02.55 0.4 °C 91 % -0.9 °C 1004.9 hPa 0.0 Km/h --- 0.0 mm  0.4 °C 0.7 °C
Mongrando San Michele (BI) 23/02/18 02.50 0.9 °C 95 % 0.2 °C 1007.9 hPa 0.0 Km/h ESE 0.0 mm  0.9 °C 1.2 °C
Muzzano (BI) 23/02/18 02.40 0.1 °C 95 % -0.6 °C 1007.2 hPa 0.0 Km/h --- 0.0 mm  0.1 °C 0.2 °C
Nichelino (TO) 23/02/18 03.00 2.2 °C 90 % 0.7 °C 1007.7 hPa 0.0 Km/h --- 0.3 mm  2.2 °C 2.5 °C
Novara (NO) 23/02/18 01.50 2.9 °C 87 % 0.9 °C 1008.2 hPa 0.0 Km/h --- 0.0 mm  2.8 °C 3.2 °C
Ostana (CN) 22/02/18 22.02 -6.3 °C 92 % -7.4 °C 1008.9 hPa 0.0 Km/h ENE 1.0 mm  -7.9 °C -2.6 °C
Parella (TO) 23/02/18 03.08 2.1 °C 93 % 1.1 °C 1006.7 hPa 0.0 Km/h W 0.0 mm  2.0 °C 2.6 °C
Pecetto Torinese (TO) 23/02/18 03.06 0.8 °C 92 % -0.4 °C 1008.0 hPa 1.6 Km/h WNW 0.0 mm  0.8 °C 1.2 °C
Pila Valsesia (VC) 23/02/18 02.50 0.3 °C 92 % -0.9 °C 1005.5 hPa 0.0 Km/h NW 0.0 mm  0.2 °C 0.7 °C
Piovà Massaia (AT) 23/02/18 03.10 1.5 °C 94 % 0.6 °C 1007.2 hPa 0.0 Km/h WNW 0.6 mm  1.4 °C 1.8 °C
Pozzolo Formigaro (AL) 23/02/18 02.55 2.4 °C 93 % 1.4 °C 1008.0 hPa 4.5 Km/h NNW 0.0 mm  2.1 °C 2.4 °C
Pray (BI) 23/02/18 03.10 1.4 °C 92 % 0.2 °C 1007.8 hPa 0.0 Km/h W 0.0 mm  1.4 °C 1.9 °C
Soriso (NO) 23/02/18 02.50 1.7 °C 90 % 0.3 °C 1008.4 hPa 0.0 Km/h --- 0.0 mm  1.7 °C 2.4 °C
Torino Regio Parco (TO) 23/02/18 03.10 3.4 °C 90 % 2.0 °C 1009.6 hPa 7.0 Km/h SW 0.2 mm  3.0 °C 3.6 °C
Valenza (AL) 23/02/18 02.58 2.1 °C 94 % 1.2 °C 1008.0 hPa 8.0 Km/h N 0.0 mm  2.1 °C 2.9 °C
Viozene Toria (CN) 23/02/18 03.10 -3.4 °C 67 % -8.6 °C 1007.2 hPa 6.0 Km/h S 0.0 mm  -3.7 °C -2.7 °C
 
 
Regione PUGLIA
Località Giorno Ora Temp. Umid. Relat. Dew Point Press. Atm. Velocità Vento Direz. Vento Precip. Temp.
Min
Temp.
Max
Acquaviva delle Fonti (BA) 23/02/18 03.13 10.2 °C 94 % 9.2 °C 1001.7 hPa 17.2 Km/h ESE 0.0 mm  10.0 °C 10.6 °C
S. Giovanni Rotondo (FG) 23/02/18 02.55 7.5 °C 92 % 6.3 °C 1003.3 hPa 0.0 Km/h NNE 0.0 mm  7.2 °C 7.6 °C
Taranto (TA) 23/02/18 02.55 12.5 °C 86 % 10.2 °C 1000.9 hPa 12.1 Km/h S 0.0 mm  12.2 °C 12.8 °C
Torremaggiore (FG) 23/02/18 03.11 6.3 °C 92 % 5.1 °C 1002.0 hPa 0.0 Km/h S 0.0 mm  6.3 °C 6.6 °C
Vieste (FG) 23/02/18 03.11 11.6 °C 86 % 9.3 °C 1004.3 hPa 11.9 Km/h SE 0.0 mm  11.1 °C 12.2 °C
 
 
Regione SARDEGNA
Località Giorno Ora Temp. Umid. Relat. Dew Point Press. Atm. Velocità Vento Direz. Vento Precip. Temp.
Min
Temp.
Max
Bitti (NU) 23/02/18 03.13 3.1 °C 89 % 1.4 °C 1000.4 hPa 6.1 Km/h S 0.0 mm  2.5 °C 3.3 °C
Bonorva (SS) 23/02/18 02.50 3.3 °C 94 % 2.5 °C 1001.2 hPa 0.0 Km/h --- 0.0 mm  3.3 °C 4.0 °C
Borore (NU) 23/02/18 03.14 2.8 °C 92 % 1.7 °C 1001.0 hPa 3.3 Km/h WNW 0.2 mm  2.7 °C 3.3 °C
Iglesias (CI) 23/02/18 03.01 4.0 °C 87 % 2.0 °C 1002.6 hPa 0.0 Km/h SW 0.0 mm  3.7 °C 5.5 °C
Orosei (NU) 23/02/18 02.56 7.7 °C 78 % 4.1 °C 1000.8 hPa 4.8 Km/h ENE 0.0 mm  6.8 °C 7.7 °C
San Vito (CA) 23/02/18 03.11 5.5 °C 81 % 2.5 °C 994.7 hPa 4.6 Km/h NNE 0.0 mm  5.5 °C 6.3 °C
Sinnai (CA) 23/02/18 00.00 5.9 °C 80 % 2.8 °C 1001.9 hPa 0.0 Km/h E 0.0 mm  5.9 °C 5.9 °C
 
 
Regione SICILIA
Località Giorno Ora Temp. Umid. Relat. Dew Point Press. Atm. Velocità Vento Direz. Vento Precip. Temp.
Min
Temp.
Max
Barcellona P.G. Centro (ME) 23/02/18 03.13 15.5 °C 63 % 8.5 °C 999.4 hPa 0.0 Km/h ESE 0.0 mm  12.8 °C 15.9 °C
Barcellona Pozzo di Gotto (ME) 23/02/18 03.13 16.5 °C 56 % 7.7 °C 999.6 hPa 13.2 Km/h S 0.0 mm  13.3 °C 16.9 °C
Brolo c/da Parrazzà (ME) 23/02/18 03.00 13.1 °C 66 % 6.9 °C 999.7 hPa 0.0 Km/h NW 0.0 mm  12.2 °C 13.9 °C
Buccheri (SR) 23/02/18 03.14 7.7 °C 99 % 7.6 °C 899.4 hPa 27.1 Km/h WSW 0.3 mm  6.9 °C 7.7 °C
Caltabellotta (AG) 23/02/18 02.50 6.7 °C 97 % 6.2 °C 999.8 hPa 5.0 Km/h N 13.2 mm  5.9 °C 7.2 °C
Cammarata (AG) 23/02/18 03.13 6.7 °C 100 % 6.7 °C 996.3 hPa 0.0 Km/h SE 12.3 mm  6.4 °C 7.0 °C
Cefalù (PA) 23/02/18 00.11 11.8 °C 75 % 7.5 °C 997.6 hPa 3.0 Km/h ENE 0.0 mm  11.7 °C 11.8 °C
Mirabella Imbaccari (CT) 23/02/18 02.58 8.7 °C 96 % 8.1 °C 1002.0 hPa 1.9 Km/h ENE 0.8 mm  8.4 °C 8.8 °C
Pace del Mela (ME) 23/02/18 03.10 12.5 °C 68 % 6.8 °C 1000.5 hPa 21.8 Km/h E 2.1 mm  12.5 °C 14.9 °C
Pedara (CT) 23/02/18 03.04 10.5 °C 85 % 8.1 °C 997.5 hPa 0.0 Km/h WNW 0.0 mm  9.5 °C 10.8 °C
Piraino contr. Fiumara (ME) 23/02/18 02.55 10.9 °C 83 % 8.2 °C 999.7 hPa 2.0 Km/h NE 0.0 mm  10.3 °C 11.9 °C
San Cataldo (CL) 23/02/18 03.09 8.3 °C 98 % 8.0 °C 997.3 hPa 0.0 Km/h NW 3.5 mm  7.5 °C 8.3 °C
San Giovanni la Punta Trappeto (CT) 23/02/18 02.55 11.9 °C 94 % 11.0 °C 1002.3 hPa 0.0 Km/h ESE 0.0 mm  10.2 °C 11.9 °C
 
 
Regione TOSCANA
Località Giorno Ora Temp. Umid. Relat. Dew Point Press. Atm. Velocità Vento Direz. Vento Precip. Temp.
Min
Temp.
Max
Avenza-Carrara (MS) 23/02/18 02.40 7.8 °C 55 % -0.7 °C 1004.2 hPa 0.0 Km/h --- 0.0 mm  7.7 °C 8.0 °C
Bientina (PI) 23/02/18 03.13 5.3 °C 73 % 0.9 °C 1002.0 hPa 1.0 Km/h NW 0.0 mm  4.4 °C 5.4 °C
Carmignano loc. Seano (PO) 23/02/18 03.14 4.8 °C 80 % 1.6 °C 1003.9 hPa 13.2 Km/h NE 0.0 mm  4.2 °C 4.8 °C
Castelnuovo V.C. (PI) 23/02/18 02.50 1.2 °C 98 % 0.9 °C 1001.5 hPa 1.1 Km/h ENE 0.0 mm  0.1 °C 1.2 °C
Isola d'Elba Marina di Campo (LI) 23/02/18 02.45 7.4 °C 88 % 5.6 °C 881.3 hPa 9.7 Km/h NNE 1.5 mm  5.2 °C 7.4 °C
Massarosa (LU) 23/02/18 03.13 6.9 °C 65 % 0.8 °C 989.5 hPa 17.3 Km/h NE 1.8 mm  5.9 °C 7.2 °C
Montespertoli (FI) 20/02/18 10.13 4.6 °C 57 % -3.2 °C 1009.7 hPa 5.1 Km/h E 0.0 mm  1.1 °C 4.6 °C
Montopoli in val d'Arno Loc. Capanne (PI) 23/02/18 03.06 5.2 °C 80 % 2.1 °C 1002.6 hPa 17.3 Km/h ENE 0.0 mm  5.2 °C 0.0 °C
Musigliano (PI) 23/02/18 03.10 8.0 °C 55 % -0.5 °C 1001.0 hPa 18.0 Km/h 2.7 mm  7.2 °C 8.0 °C
Pisa zona I Passi (PI) 23/02/18 03.10 7.2 °C 54 % -1.5 °C 1002.3 hPa 0.0 Km/h NE 7.4 mm  5.9 °C 7.9 °C
Reggello (FI) 23/02/18 03.10 2.8 °C 91 % 1.5 °C 1005.9 hPa 3.2 Km/h ONO 3.4 mm  2.2 °C 4.8 °C
Torri (FI) 23/02/18 02.45 2.8 °C 90 % 1.4 °C 1002.8 hPa 6.4 Km/h WNW 1.8 mm  2.4 °C 2.8 °C
Torrita di Siena (SI) 23/02/18 02.50 3.3 °C 94 % 2.4 °C 1003.9 hPa 3.2 Km/h W 0.4 mm  3.3 °C 3.9 °C
 
 
Regione TRENTINO A. A.
Località Giorno Ora Temp. Umid. Relat. Dew Point Press. Atm. Velocità Vento Direz. Vento Precip. Temp.
Min
Temp.
Max
Ala (TN) 23/02/18 03.13 3.9 °C 88 % 2.1 °C 1007.2 hPa 1.5 Km/h SSW 0.0 mm  3.7 °C 4.1 °C
Avio (TN) 23/02/18 03.13 4.4 °C 89 % 2.7 °C 1007.1 hPa 0.0 Km/h S 0.0 mm  4.3 °C 4.8 °C
Besenello (TN) 23/02/18 03.13 4.7 °C 72 % 0.1 °C 1008.0 hPa 0.0 Km/h WSW 0.0 mm  3.7 °C 4.9 °C
Bolognano di Arco (TN) 23/02/18 03.13 3.9 °C 90 % 2.5 °C 1008.7 hPa 0.0 Km/h SSW 0.0 mm  3.7 °C 4.1 °C
Borgo Valsugana (TN) 23/02/18 03.05 1.6 °C 85 % -0.6 °C 1007.0 hPa 0.0 Km/h NE 0.0 mm  1.5 °C 2.8 °C
Calliano (TN) 23/02/18 03.13 4.4 °C 74 % 0.2 °C 1007.0 hPa 0.0 Km/h ESE 0.0 mm  2.9 °C 4.7 °C
Gardolo (TN) 23/02/18 03.13 2.7 °C 77 % -0.9 °C 1008.4 hPa 0.0 Km/h NE 0.0 mm  2.5 °C 4.7 °C
Isera loc. Reviano (TN) 23/02/18 03.14 4.2 °C 73 % -0.2 °C 1001.9 hPa 3.0 Km/h W 0.0 mm  3.6 °C 4.6 °C
Lavis (TN) 23/02/18 03.10 5.3 °C 55 % -3.3 °C 1007.2 hPa 4.8 Km/h N 0.0 mm  3.2 °C 5.3 °C
Margone (TN) 23/02/18 03.10 -0.7 °C 73 % -4.9 °C 1009.5 hPa 7.2 Km/h NNE 0.0 mm  -0.7 °C 0.4 °C
Martignano (TN) 23/02/18 02.55 3.4 °C 71 % -1.3 °C 1006.4 hPa 1.6 Km/h SSW 0.0 mm  3.3 °C 4.8 °C
Massone di Arco (TN) 23/02/18 03.13 4.1 °C 89 % 2.4 °C 1006.0 hPa 0.0 Km/h SE 0.0 mm  3.9 °C 4.4 °C
Miola di Piné (TN) 23/02/18 03.10 -0.7 °C 81 % -3.6 °C 1008.6 hPa 2.2 Km/h S 0.0 mm  -1.6 °C 0.2 °C
Padergnone (TN) 23/02/18 03.00 6.9 °C 52 % -2.3 °C 1007.9 hPa 17.1 Km/h N 0.0 mm  5.9 °C 6.9 °C
Taio Mollaro (TN) 23/02/18 03.10 1.1 °C 79 % -2.1 °C 1008.1 hPa 0.0 Km/h N 0.0 mm  1.1 °C 1.5 °C
Trento (TN) 23/02/18 03.11 5.9 °C 61 % -1.0 °C 1006.7 hPa 4.8 Km/h NNE 0.0 mm  5.6 °C 6.4 °C
Vattaro fraz. Pian dei Pradi (TN) 23/02/18 03.12 -0.3 °C 89 % -1.9 °C 1009.3 hPa 1.5 Km/h SSW 0.0 mm  -0.4 °C 0.2 °C
 
 
Regione UMBRIA
Località Giorno Ora Temp. Umid. Relat. Dew Point Press. Atm. Velocità Vento Direz. Vento Precip. Temp.
Min
Temp.
Max
Castiglione del Lago (PG) 23/02/18 02.50 4.3 °C 73 % -0.1 °C 1005.0 hPa 0.0 Km/h N 0.6 mm  3.7 °C 4.4 °C
Foligno (PG) 23/02/18 02.40 5.6 °C 84 % 3.1 °C 1002.7 hPa 0.0 Km/h NNE 0.0 mm  5.4 °C 6.1 °C
Orvieto (TR) 23/02/18 03.01 4.2 °C 91 % 2.9 °C 999.7 hPa 0.0 Km/h S 0.5 mm  4.0 °C 4.3 °C
Perugia San Mariano (PG) 23/02/18 03.06 4.6 °C 86 % 2.4 °C 1003.6 hPa 0.0 Km/h N 1.3 mm  3.9 °C 4.9 °C
 
 
Regione VALLE DAOSTA
Località Giorno Ora Temp. Umid. Relat. Dew Point Press. Atm. Velocità Vento Direz. Vento Precip. Temp.
Min
Temp.
Max
Colle del Piccolo San Bernardo La Thuile (AO) 23/02/18 03.00 -9.4 °C 92 % -10.6 °C 1009.7 hPa 0.0 Km/h NNE 0.0 mm  -9.4 °C -9.1 °C
 
 
Regione VENETO
Località Giorno Ora Temp. Umid. Relat. Dew Point Press. Atm. Velocità Vento Direz. Vento Precip. Temp.
Min
Temp.
Max
Abano (PD) 23/02/18 02.55 2.9 °C 87 % 0.9 °C 1007.5 hPa 11.3 Km/h ENE 0.4 mm  2.9 °C 4.1 °C
Alleghe (BL) 23/02/18 03.13 -1.5 °C 70 % -6.3 °C 992.6 hPa 0.0 Km/h SSE 0.0 mm  -2.4 °C -1.1 °C
Alleghe Lago (BL) 23/02/18 03.13 -0.3 °C 68 % -5.5 °C 1006.3 hPa 12.8 Km/h N 0.0 mm  -0.9 °C -0.3 °C
Arquà Polesine (RO) 23/02/18 03.13 2.9 °C 88 % 1.1 °C 1008.7 hPa 4.8 Km/h ENE 2.8 mm  2.9 °C 4.3 °C
Arzignano loc. Castello (VI) 22/02/18 23.00 3.9 °C 81 % 0.9 °C 1008.8 hPa 0.4 Km/h NNW 9.4 mm  2.3 °C 5.0 °C
Arzignano Pugnello (VI) 23/02/18 03.13 2.9 °C 82 % 0.0 °C 1006.8 hPa 8.0 Km/h NE 0.0 mm  2.8 °C 4.1 °C
Arzignano San Bortolo (VI) 23/02/18 03.04 3.6 °C 78 % 0.1 °C 1006.0 hPa 17.7 Km/h NE 0.0 mm  3.6 °C 4.4 °C
Arzignano Tezze (VI) 23/02/18 03.01 4.4 °C 79 % 1.1 °C 1008.0 hPa 1.6 Km/h WNW 0.0 mm  4.4 °C 5.1 °C
Asiago Rifugio Val Formica (VI) 23/02/18 03.03 -4.5 °C 91 % -5.7 °C 1007.7 hPa 13.0 Km/h N 0.0 mm  -4.5 °C -3.7 °C
Badia Calavena loc. San Valentino (VR) 23/02/18 03.13 -0.7 °C 94 % -1.6 °C 1005.7 hPa 24.1 Km/h NE 0.0 mm  -1.3 °C -0.2 °C
Bardolino (VR) 23/02/18 03.14 4.2 °C 91 % 2.8 °C 1000.7 hPa 0.0 Km/h SW 0.6 mm  4.1 °C 4.6 °C
Bassano del Grappa (VI) 22/02/18 07.40 4.2 °C 84 % 1.8 °C 993.9 hPa 1.6 Km/h ENE 0.8 mm  3.5 °C 5.0 °C
Belluno Castion (BL) 23/02/18 02.45 2.0 °C 87 % 0.1 °C 1007.2 hPa 1.6 Km/h ESE 0.0 mm  1.7 °C 2.2 °C
Brendola (VI) 23/02/18 03.12 4.3 °C 91 % 3.0 °C 993.7 hPa 2.5 Km/h E 0.3 mm  2.9 °C 4.6 °C
Bresega (PD) 23/02/18 03.13 2.9 °C 87 % 1.1 °C 1007.9 hPa 19.0 Km/h NNE 0.4 mm  2.9 °C 5.1 °C
Brugine2 (PD) 23/02/18 03.08 2.2 °C 90 % 0.8 °C 1008.5 hPa 10.9 Km/h NNE 1.4 mm  2.2 °C 4.3 °C
Camposampiero (PD) 23/02/18 02.58 3.8 °C 59 % -3.5 °C 1014.0 hPa 0.0 Km/h N 0.0 mm  3.8 °C 3.8 °C
Caprino (VR) 23/02/18 03.13 3.2 °C 95 % 2.4 °C 1006.2 hPa 0.0 Km/h SSW 0.0 mm  3.1 °C 3.3 °C
Carceri (PD) 23/02/18 02.56 2.9 °C 87 % 1.1 °C 1007.3 hPa 19.3 Km/h E 0.3 mm  2.9 °C 4.2 °C
Cartigliano (VI) 23/02/18 03.13 4.3 °C 77 % 0.6 °C 1007.9 hPa 9.1 Km/h NE 0.0 mm  3.8 °C 4.3 °C
Cartura (PD) 23/02/18 03.14 1.9 °C 87 % 0.0 °C 1008.1 hPa 13.0 Km/h NNE 0.5 mm  1.9 °C 4.1 °C
Castel d'Azzano (VR) 23/02/18 02.45 5.6 °C 66 % -0.3 °C 1021.8 hPa 1.6 Km/h SE 0.0 mm  5.5 °C 5.8 °C
Castelfranco Veneto (TV) 23/02/18 02.55 4.4 °C 77 % 0.7 °C 1009.1 hPa 0.0 Km/h ENE 0.0 mm  4.3 °C 4.6 °C
Castelgomberto (VI) 23/02/18 03.14 4.1 °C 74 % -0.2 °C 1007.9 hPa 0.0 Km/h N 0.0 mm  4.1 °C 5.0 °C
Cavazzale (VI) 22/02/18 19.55 4.1 °C 90 % 2.6 °C 1009.5 hPa 0.0 Km/h WNW 0.0 mm  4.1 °C 5.8 °C
Cerea (VR) 22/02/18 23.45 4.5 °C 77 % 0.8 °C 1008.6 hPa 14.5 Km/h NE 7.8 mm  2.8 °C 5.9 °C
Cerea2 (VR) 23/02/18 03.00 3.8 °C 63 % -2.5 °C 1005.0 hPa 10.5 Km/h N 0.0 mm  3.7 °C 4.1 °C
Cima Grappa (TV) 23/02/18 03.14 -6.2 °C 95 % -6.8 °C 1011.6 hPa 12.4 Km/h NNE 0.0 mm  -6.3 °C -6.1 °C
Cismon del Grappa loc. Corlo (VI) 23/02/18 03.14 2.0 °C 92 % 0.8 °C 1009.0 hPa 3.0 Km/h N 0.0 mm  1.9 °C 2.2 °C
Cogollo del Cengio (VI) 23/02/18 03.10 2.0 °C 99 % 1.9 °C 1006.5 hPa 4.6 Km/h N 0.0 mm  1.5 °C 2.3 °C
Cologna Veneta Sant'Andrea (VR) 23/02/18 02.55 4.1 °C 77 % 0.4 °C 1008.0 hPa 14.5 Km/h ENE 0.0 mm  3.8 °C 4.3 °C
Colognola ai Colli (VR) 23/02/18 02.55 5.1 °C 71 % 0.3 °C 1009.1 hPa 16.1 Km/h N 0.0 mm  5.1 °C 5.4 °C
Contrada Dosso Gervasio (VR) 23/02/18 02.15 -1.4 °C 96 % -2.2 °C 1006.3 hPa 0.0 Km/h WNW 0.0 mm  -1.4 °C -0.5 °C
Corrubio di S. Anna d'Alfaedo (VR) 21/02/18 10.00 1.1 °C 63 % -5.2 °C 1011.6 hPa 0.0 Km/h SE 0.0 mm  -0.6 °C 1.3 °C
Costa di Vittorio Veneto (TV) 23/02/18 03.02 3.8 °C 78 % 0.3 °C 1007.3 hPa 3.2 Km/h N 0.0 mm  3.6 °C 4.2 °C
Crespano del Grappa (TV) 23/02/18 03.01 2.8 °C 78 % -0.7 °C 1004.3 hPa 0.0 Km/h E 0.0 mm  2.8 °C 3.5 °C
Dossobuono (VR) 23/02/18 03.14 5.0 °C 73 % 0.6 °C 1009.5 hPa 19.3 Km/h E 0.0 mm  4.7 °C 5.8 °C
Erbezzo Passo Fittanze (VR) 23/02/18 03.03 -4.1 °C 93 % -5.1 °C 1009.4 hPa 23.8 Km/h NW 0.0 mm  -4.1 °C -3.6 °C
Falzè di Piave (TV) 22/02/18 21.35 4.7 °C 75 % 0.6 °C 1010.7 hPa 2.0 Km/h --- 1.2 mm  2.6 °C 6.8 °C
Farra di Soligo (TV) 23/02/18 03.14 3.3 °C 65 % -2.7 °C 1013.3 hPa 2.5 Km/h N 0.0 mm  2.8 °C 3.6 °C
Favaro Veneto (VE) 23/02/18 03.10 3.5 °C 81 % 0.6 °C 1008.8 hPa 17.7 Km/h ENE 0.0 mm  3.4 °C 4.1 °C
Feltre Celarda (BL) 23/02/18 03.14 1.4 °C 92 % 0.2 °C 1005.5 hPa 0.0 Km/h SE 0.0 mm  1.3 °C 2.1 °C
Ferrara di M.B. (VR) 22/02/18 21.10 -1.1 °C 62 % -7.5 °C 1003.4 hPa 8.0 Km/h NNE 2.8 mm  -3.9 °C -0.8 °C
Fumane Contrada La Ca (VR) 23/02/18 03.02 1.7 °C 85 % -0.6 °C 1008.0 hPa 3.2 Km/h S 0.3 mm  1.7 °C 2.0 °C
Gallio (VI) 23/02/18 03.00 -2.3 °C 93 % -3.3 °C 1008.7 hPa 0.0 Km/h N 0.0 mm  -3.2 °C -1.8 °C
Lugagnano (VR) 23/02/18 03.13 4.2 °C 91 % 2.8 °C 1007.2 hPa 1.7 Km/h NNE 0.0 mm  4.2 °C 5.4 °C
Lusiana Sciessere (VI) 23/02/18 03.02 -0.6 °C 92 % -1.7 °C 1006.3 hPa 0.0 Km/h ESE 0.0 mm  -0.9 °C 0.0 °C
Malga Malera (VR) 23/02/18 03.00 -5.0 °C  %  °C  hPa 0.0 Km/h 0.0 mm   °C  °C
Marano Vicentino2 (VI) 23/02/18 03.10 3.8 °C 87 % 1.8 °C 1007.6 hPa 0.0 Km/h NNW 0.0 mm  2.9 °C 3.3 °C
Marostica Valle San Floriano (VI) 21/02/18 13.13 7.7 °C 58 % 0.0 °C 1010.5 hPa 2.0 Km/h SSE 0.0 mm  0.6 °C 7.7 °C
Merlara (PD) 23/02/18 02.55 2.6 °C 84 % 0.2 °C 1007.6 hPa 22.5 Km/h ENE 0.3 mm  2.6 °C 3.9 °C
Mizzole (VR) 23/02/18 03.01 5.7 °C 69 % 0.5 °C 997.9 hPa 3.2 Km/h NE 0.0 mm  5.3 °C 6.0 °C
Molina (VR) 23/02/18 03.02 0.8 °C 81 % -2.1 °C 996.8 hPa 0.0 Km/h N 0.0 mm  0.7 °C 0.9 °C
Monselice (PD) 23/02/18 03.10 2.5 °C 83 % -0.1 °C 1009.3 hPa 11.2 Km/h E 0.0 mm  2.6 °C 4.8 °C
Montebello Vicentino loc. Selva (VI) 23/02/18 03.10 3.4 °C 58 % -4.1 °C 1008.1 hPa 18.4 Km/h E 0.0 mm  3.4 °C 4.1 °C
Montecchio Maggiore Sant'Urbano (VI) 23/02/18 03.06 3.0 °C 65 % -3.0 °C 1010.7 hPa 14.3 Km/h NNE 0.0 mm  3.0 °C 3.5 °C
Monteforte d'Alpone (VR) 23/02/18 02.55 4.8 °C 71 % 0.0 °C 1006.5 hPa 25.7 Km/h ENE 0.0 mm  4.8 °C 5.3 °C
Montorio (VR) 23/02/18 03.04 5.8 °C 66 % -0.1 °C 1010.4 hPa 15.4 Km/h ENE 0.0 mm  5.7 °C 6.6 °C
Montorso Vicentino (VI) 23/02/18 03.10 2.3 °C 82 % -0.5 °C 1007.8 hPa 11.3 Km/h ENE 0.0 mm  2.3 °C 2.9 °C
Onara extraurbana (PD) 23/02/18 03.07 4.6 °C 71 % -0.2 °C 1003.3 hPa 0.0 Km/h NW 0.0 mm  4.6 °C 4.7 °C
Oppeano (VR) 21/02/18 21.50 4.6 °C 69 % -0.6 °C 1004.7 hPa 0.0 Km/h --- 0.0 mm  2.2 °C 8.5 °C
Pastrengo (VR) 23/02/18 03.04 3.2 °C 92 % 2.1 °C 1009.0 hPa 0.0 Km/h SW 0.3 mm  3.2 °C 3.6 °C
Pastrengo Corné (VR) 23/02/18 02.56 3.6 °C 96 % 3.0 °C 1007.6 hPa 0.0 Km/h WSW 0.2 mm  3.5 °C 3.8 °C
Pedemonte (VR) 23/02/18 02.55 4.1 °C 89 % 2.4 °C 1007.7 hPa 0.0 Km/h WNW 0.0 mm  4.1 °C 4.7 °C
Perarolo di Arcugnano (VI) 23/02/18 03.10 2.5 °C 79 % -0.8 °C 978.1 hPa 18.0 Km/h NNE 0.0 mm  2.4 °C 2.7 °C
Pescantina Are (VR) 23/02/18 03.07 4.4 °C 93 % 3.4 °C 1007.7 hPa 0.0 Km/h WSW 0.0 mm  4.2 °C 4.7 °C
Pian di Castagné (VR) 23/02/18 03.00 2.7 °C 76 % -1.1 °C 1008.0 hPa 24.1 Km/h ENE 2.3 mm  2.3 °C 3.4 °C
Pian di Castagné2 (VR) 23/02/18 03.04 2.1 °C 79 % -1.2 °C 1006.7 hPa 25.9 Km/h ESE 0.0 mm  1.4 °C 2.5 °C
Pojana Maggiore Cagnano (VI) 23/02/18 03.10 3.6 °C 72 % -1.0 °C 1008.0 hPa 23.4 Km/h NE 0.0 mm  3.6 °C 4.4 °C
Ponte San Nicolò (PD) 23/02/18 03.06 2.7 °C 86 % 0.6 °C 1008.0 hPa 8.0 Km/h NE 0.3 mm  2.7 °C 4.7 °C
Rifugio Bocca di Selva (VR) 23/02/18 03.10 -2.3 °C 68 % -7.4 °C 995.3 hPa 17.7 Km/h ENE 0.0 mm  -2.3 °C -2.3 °C
Rifugio Primaneve (VR) 23/02/18 03.07 -5.5 °C 96 % -6.0 °C 1008.4 hPa 37.0 Km/h NNE 0.0 mm  -5.6 °C -4.9 °C
Romano d'Ezzelino Fellette (VI) 23/02/18 03.10 4.5 °C 67 % -1.1 °C 1011.9 hPa 20.9 Km/h NE 0.0 mm  3.6 °C 4.8 °C
Rosolina (RO) 23/02/18 03.05 3.8 °C 92 % 2.6 °C 1008.0 hPa 16.1 Km/h NE 2.0 mm  3.8 °C 4.8 °C
S. Giovanni Ilarione2 (VR) 23/02/18 02.55 4.7 °C 73 % 0.2 °C 1008.3 hPa 9.7 Km/h N 0.0 mm  4.4 °C 5.2 °C
S. Giovanni Lupatoto (VR) 23/02/18 02.50 5.6 °C 71 % 0.7 °C 1008.7 hPa 3.2 Km/h E 0.0 mm  5.4 °C 5.6 °C
S. Lorenzo di Vittorio Veneto (TV) 23/02/18 03.05 3.3 °C 76 % -0.5 °C 1009.1 hPa 0.0 Km/h N 0.3 mm  2.9 °C 4.4 °C
S. Maria di Zevio Loc. 3 Ponti (VR) 23/02/18 03.10 4.8 °C 75 % 0.6 °C 1010.4 hPa 10.0 Km/h ENE 0.0 mm  4.8 °C 5.3 °C
S. Maria Maddalena (RO) 23/02/18 03.05 3.9 °C 91 % 2.8 °C 1006.8 hPa 11.3 Km/h NNE 3.2 mm  3.8 °C 4.4 °C
S. Martino Lupari (PD) 23/02/18 02.50 4.3 °C 75 % 0.3 °C 947.1 hPa 0.0 Km/h --- 0.0 mm  4.2 °C 4.4 °C
S. Rocco di Villabalzana (VI) 23/02/18 03.13 3.2 °C 79 % 0.0 °C 1008.2 hPa 16.1 Km/h NE 0.0 mm  2.8 °C 3.2 °C
S. Zeno di Mont. Prada (VR) 23/02/18 02.50 -1.6 °C 95 % -2.3 °C 1007.8 hPa 0.0 Km/h --- 0.0 mm  -1.6 °C -1.4 °C
Salcedo (VI) 23/02/18 03.10 1.7 °C 78 % -1.7 °C 1006.6 hPa 9.1 Km/h NE 0.0 mm  1.4 °C 3.0 °C
San Nazario (VI) 23/02/18 03.01 4.1 °C 79 % 0.8 °C 1007.7 hPa 0.0 Km/h N 0.0 mm  3.5 °C 4.6 °C
San Pietro in Cariano (VR) 23/02/18 03.09 3.5 °C 91 % 2.2 °C 1007.3 hPa 0.0 Km/h NW 0.0 mm  3.5 °C 3.7 °C
San Zeno di Mont. Loc. Castello (VR) 23/02/18 03.11 -0.5 °C 95 % -1.1 °C 1007.7 hPa 2.0 Km/h N 0.0 mm  -0.6 °C -0.1 °C
Santa Maria di Negrar (VR) 23/02/18 03.07 3.6 °C 88 % 1.7 °C 1008.7 hPa 0.0 Km/h NW 0.0 mm  3.5 °C 4.3 °C
Sarcedo (VI) 23/02/18 03.10 4.4 °C 76 % 0.5 °C 1007.8 hPa 10.1 Km/h N 0.0 mm  3.6 °C 4.8 °C
Schio (VI) 23/02/18 02.40 3.4 °C 88 % 1.6 °C 1010.2 hPa 1.6 Km/h WNW 0.0 mm  3.2 °C 3.6 °C
Schio Monte Magré (VI) 23/02/18 03.11 2.8 °C 87 % 0.9 °C 0.0 hPa 3.2 Km/h ESE 0.0 mm  1.6 °C 2.9 °C
Selva di Progno (VR) 23/02/18 03.00 0.8 °C 85 % -1.4 °C 1008.4 hPa 1.6 Km/h NW 0.0 mm  0.7 °C 1.7 °C
Soave Borgo Bassano (VR) 23/02/18 02.55 5.3 °C 72 % 0.6 °C 1008.7 hPa 14.0 Km/h NE 0.0 mm  5.3 °C 5.8 °C
Sona Loc. La Colombara (VR) 23/02/18 03.00 3.8 °C 93 % 2.8 °C 1004.8 hPa 2.0 Km/h W 0.0 mm  3.8 °C 4.2 °C
Tombolo (PD) 23/02/18 03.10 4.2 °C 76 % 0.4 °C 1009.3 hPa 7.8 Km/h ENE 1.2 mm  4.1 °C 5.7 °C
Tregnago Loc. Centro (VR) 23/02/18 02.55 1.9 °C 83 % -0.6 °C 1002.3 hPa 6.4 Km/h ENE 0.0 mm  1.3 °C 2.3 °C
Treviso (TV) 23/02/18 03.10 4.6 °C 63 % -1.8 °C 1008.7 hPa 0.0 Km/h NNE 0.0 mm  4.2 °C 5.0 °C
Val Lastaro (VI) 23/02/18 02.10 -2.3 °C 93 % -3.3 °C 1009.5 hPa 0.0 Km/h E 0.0 mm  -2.6 °C -2.1 °C
Valdagno (VI) 23/02/18 03.10 3.5 °C 71 % -1.3 °C 1000.6 hPa 6.1 Km/h S 0.0 mm  2.4 °C 3.5 °C
Valdobbiadene San Pietro di Barbozza (TV) 23/02/18 02.55 3.1 °C 77 % -0.5 °C 1007.9 hPa 4.8 Km/h S 0.0 mm  2.8 °C 3.5 °C
Valli del Pasubio loc. Gisbenti (VI) 23/02/18 03.10 1.8 °C 77 % -1.8 °C 965.0 hPa 0.0 Km/h --- 0.0 mm  1.6 °C 1.9 °C
Vazzo Roveré Veronese (VR) 23/02/18 03.11 -1.7 °C 91 % -3.0 °C 1005.7 hPa 8.0 Km/h ENE 0.0 mm  -2.2 °C -1.6 °C
Verona Bgo Venezia (iz3sly) (VR) 22/02/18 17.59 5.5 °C 79 % 2.2 °C 1007.3 hPa 3.2 Km/h W 2.5 mm  3.3 °C 5.6 °C
Verona Saval (VR) 23/02/18 03.02 6.2 °C 62 % -0.6 °C 1008.0 hPa 9.7 Km/h SW 0.0 mm  5.0 °C 6.2 °C
Vestenanova (VR) 23/02/18 03.11 1.0 °C 71 % -3.7 °C 1011.0 hPa 17.3 Km/h NNW 0.0 mm  0.8 °C 1.0 °C
Vicenza Campedello (VI) 23/02/18 03.17 4.1 °C 80 % 1.1 °C 1009.2 hPa 0.0 Km/h NNW 0.0 mm  3.8 °C 4.1 °C
Vicenza Moracchino (VI) 23/02/18 03.10 4.7 °C 70 % -0.3 °C 1007.8 hPa 0.0 Km/h ENE 0.0 mm  4.7 °C 5.2 °C
Vicenza Pecori Giraldi (VI) 23/02/18 03.00 5.2 °C 82 % 2.4 °C 1016.8 hPa 6.4 Km/h NNE 0.0 mm  4.8 °C 5.3 °C
Vicenza S. Lazzaro (VI) 23/02/18 03.10 4.7 °C 72 % 0.0 °C 1008.0 hPa 21.0 Km/h E 0.0 mm  4.7 °C 5.1 °C
Vicenza San Gaetano (VI) 22/02/18 22.57 5.2 °C 80 % 2.0 °C 1009.5 hPa 0.3 Km/h NNW 8.0 mm  4.6 °C 6.7 °C
Vidor (TV) 23/02/18 02.55 3.8 °C 74 % -0.4 °C 1007.4 hPa 6.5 Km/h NE 0.0 mm  3.7 °C 4.2 °C
Vigasio (VR) 23/02/18 02.50 5.3 °C 74 % 1.1 °C 1006.7 hPa 3.2 Km/h ESE 0.0 mm  5.2 °C 5.8 °C
Vittorio Veneto (TV) 23/02/18 00.25 3.4 °C 84 % 0.9 °C 1009.0 hPa 0.0 Km/h SE 0.0 mm  3.4 °C 3.5 °C
Vittorio Veneto Parco Fenderl (TV) 23/02/18 00.20 3.0 °C 84 % 0.6 °C 1009.4 hPa 0.0 Km/h SSW 0.0 mm  3.0 °C 3.3 °C
Volpago del Montello (TV) 23/02/18 02.45 4.1 °C 74 % -0.1 °C 1008.5 hPa 0.0 Km/h --- 0.0 mm  4.1 °C 4.6 °C
 
 
 
(*) = Precipitazioni nelle ultime 24h.
Dati non aggiornati nell'ultima ora.
   
In collaborazione con: